createdAt,value
2018-12-19T00:01:39.642Z,32.90
2018-12-19T00:06:45.208Z,31.83
2018-12-19T00:11:48.928Z,32.83
2018-12-19T00:16:52.430Z,34.13
2018-12-19T00:21:55.926Z,33.90
2018-12-19T00:26:59.474Z,35.50
2018-12-19T00:32:05.038Z,32.47
2018-12-19T00:37:11.634Z,34.23
2018-12-19T00:42:16.043Z,34.40
2018-12-19T00:47:19.551Z,36.53
2018-12-19T00:52:23.060Z,34.50
2018-12-19T00:57:26.812Z,35.13
2018-12-19T01:02:30.564Z,31.00
2018-12-19T01:07:34.049Z,39.23
2018-12-19T01:12:37.625Z,32.50
2018-12-19T01:17:41.265Z,33.40
2018-12-19T01:22:44.934Z,39.23
2018-12-19T01:27:48.360Z,35.70
2018-12-19T01:32:53.043Z,36.17
2018-12-19T01:37:56.480Z,37.53
2018-12-19T01:43:00.185Z,38.63
2018-12-19T01:48:03.951Z,36.27
2018-12-19T01:53:07.626Z,33.80
2018-12-19T01:58:11.363Z,31.60
2018-12-19T02:03:15.017Z,31.53
2018-12-19T02:08:19.616Z,33.63
2018-12-19T02:13:23.335Z,33.43
2018-12-19T02:18:26.850Z,35.17
2018-12-19T02:23:30.329Z,33.80
2018-12-19T02:28:33.905Z,34.53
2018-12-19T02:33:37.317Z,31.70
2018-12-19T02:38:41.023Z,33.33
2018-12-19T02:43:44.491Z,32.70
2018-12-19T02:48:48.117Z,29.67
2018-12-19T02:53:51.551Z,32.70
2018-12-19T02:58:55.018Z,29.77
2018-12-19T03:03:58.606Z,35.27
2018-12-19T03:09:02.436Z,29.97
2018-12-19T03:14:08.095Z,33.63
2018-12-19T03:19:11.600Z,35.77
2018-12-19T03:24:15.150Z,30.63
2018-12-19T03:29:18.968Z,34.80
2018-12-19T03:34:22.522Z,35.60
2018-12-19T03:39:26.125Z,34.40
2018-12-19T03:44:29.712Z,35.10
2018-12-19T03:49:33.392Z,38.80
2018-12-19T03:54:36.934Z,38.10
2018-12-19T03:59:41.955Z,37.73
2018-12-19T04:04:46.482Z,36.70
2018-12-19T04:09:49.973Z,36.93
2018-12-19T04:14:53.461Z,34.10
2018-12-19T04:19:57.034Z,37.67
2018-12-19T04:25:02.589Z,35.77
2018-12-19T04:30:06.735Z,35.50
2018-12-19T04:35:10.320Z,35.70
2018-12-19T04:40:14.001Z,33.37
2018-12-19T04:45:17.489Z,33.80
2018-12-19T04:50:21.410Z,39.80
2018-12-19T04:55:25.178Z,32.90
2018-12-19T05:00:28.784Z,32.20
2018-12-19T05:05:32.257Z,31.03
2018-12-19T05:10:35.766Z,30.90
2018-12-19T05:15:39.373Z,30.93
2018-12-19T05:20:42.979Z,33.23
2018-12-19T05:25:46.421Z,30.70
2018-12-19T05:30:49.844Z,31.87
2018-12-19T05:35:53.644Z,28.27
2018-12-19T05:40:57.246Z,31.70
2018-12-19T05:46:00.860Z,29.83
2018-12-19T05:51:04.398Z,31.27
2018-12-19T05:56:09.213Z,27.40
2018-12-19T06:01:12.886Z,29.10
2018-12-19T06:06:18.432Z,32.13
2018-12-19T06:11:21.842Z,31.00
2018-12-19T06:16:25.671Z,27.10
2018-12-19T06:21:29.181Z,26.73
2018-12-19T06:26:32.658Z,26.47
2018-12-19T06:31:38.178Z,22.50
2018-12-19T06:36:41.649Z,26.47
2018-12-19T06:41:45.206Z,30.27
2018-12-19T06:46:48.764Z,30.20
2018-12-19T06:51:52.315Z,25.23
2018-12-19T06:56:55.907Z,25.03
2018-12-19T07:01:59.493Z,26.63
2018-12-19T07:07:03.118Z,24.80
2018-12-19T07:12:06.589Z,25.83
2018-12-19T07:17:10.060Z,26.07
2018-12-19T07:22:13.518Z,24.60
2018-12-19T07:27:17.460Z,24.63
2018-12-19T07:32:21.313Z,24.97
2018-12-19T07:37:24.919Z,24.83
2018-12-19T07:42:28.838Z,23.30
2018-12-19T07:47:32.636Z,25.20
2018-12-19T07:52:36.307Z,24.07
2018-12-19T07:57:39.844Z,25.47
2018-12-19T08:02:43.396Z,23.50
2018-12-19T08:07:47.192Z,21.87
2018-12-19T08:12:50.827Z,27.80
2018-12-19T08:17:54.590Z,22.97
2018-12-19T08:22:58.258Z,24.40
2018-12-19T08:28:01.812Z,23.50
2018-12-19T08:33:05.613Z,26.20
2018-12-19T08:38:09.217Z,26.67
2018-12-19T08:43:12.663Z,21.90
2018-12-19T08:48:16.550Z,26.80
2018-12-19T08:53:20.061Z,22.40
2018-12-19T08:58:23.651Z,23.17
2018-12-19T09:03:27.125Z,22.70
2018-12-19T09:08:33.241Z,25.00
2018-12-19T09:13:36.688Z,24.83
2018-12-19T09:18:40.234Z,25.53
2018-12-19T09:23:43.871Z,25.80
2018-12-19T09:28:47.285Z,24.63
2018-12-19T09:33:50.746Z,24.00
2018-12-19T09:38:54.610Z,26.13
2018-12-19T09:43:58.288Z,24.90
2018-12-19T09:49:01.934Z,24.73
2018-12-19T09:54:05.710Z,27.43
2018-12-19T09:59:09.254Z,24.53
2018-12-19T10:04:12.739Z,24.40
2018-12-19T10:09:16.468Z,23.77
2018-12-19T10:14:20.030Z,24.03
2018-12-19T10:19:23.840Z,19.73
2018-12-19T10:30:46.976Z,24.00
2018-12-19T10:35:50.583Z,23.13
2018-12-19T10:40:54.308Z,22.77
2018-12-19T10:45:57.933Z,22.97
2018-12-19T10:51:01.758Z,21.43
2018-12-19T10:56:05.247Z,22.70
2018-12-19T11:01:08.778Z,23.33
2018-12-19T11:06:12.489Z,28.97
2018-12-19T11:11:15.952Z,27.13
2018-12-19T11:16:20.007Z,28.50
2018-12-19T11:21:23.706Z,30.67
2018-12-19T11:26:27.707Z,33.20
2018-12-19T11:31:31.243Z,32.50
2018-12-19T11:36:34.922Z,34.07
2018-12-19T11:41:39.762Z,33.27
2018-12-19T11:46:43.268Z,29.67
2018-12-19T11:51:46.764Z,32.03
2018-12-19T11:56:50.265Z,33.40
2018-12-19T12:01:53.762Z,32.87
2018-12-19T12:06:57.244Z,38.37
2018-12-19T12:12:00.764Z,33.40
2018-12-19T12:17:04.301Z,38.00
2018-12-19T12:22:08.066Z,39.50
2018-12-19T12:27:11.539Z,41.13
2018-12-19T12:32:15.062Z,45.83
2018-12-19T12:37:19.670Z,40.80
2018-12-19T12:42:23.103Z,44.60
2018-12-19T12:47:27.002Z,44.77
2018-12-19T12:52:30.518Z,47.37
2018-12-19T12:57:34.030Z,50.53
2018-12-19T13:02:37.473Z,42.30
2018-12-19T13:07:41.062Z,47.17
2018-12-19T13:12:44.520Z,45.17
2018-12-19T13:17:48.495Z,44.97
2018-12-19T13:22:52.139Z,45.40
2018-12-19T13:27:56.413Z,42.87
2018-12-19T13:33:00.732Z,55.77
2018-12-19T13:38:08.740Z,43.90
2018-12-19T13:43:12.975Z,48.60
2018-12-19T13:48:16.992Z,50.53
2018-12-19T13:53:20.507Z,49.87
2018-12-19T13:58:26.470Z,48.00
2018-12-19T14:03:30.042Z,47.23
2018-12-19T14:08:50.413Z,53.23
2018-12-19T14:13:54.066Z,54.43
2018-12-19T14:18:57.710Z,50.33
2018-12-19T14:24:01.420Z,50.00
2018-12-19T14:29:04.882Z,52.50
2018-12-19T14:34:08.645Z,55.90
2018-12-19T14:39:12.177Z,46.57
2018-12-19T14:44:15.999Z,54.20
2018-12-19T14:49:19.633Z,51.83
2018-12-19T14:54:23.096Z,51.87
2018-12-19T14:59:26.553Z,55.97
2018-12-19T15:04:30.812Z,50.90
2018-12-19T15:09:35.836Z,52.87
2018-12-19T15:14:39.610Z,56.13
2018-12-19T15:19:43.306Z,50.73
2018-12-19T15:24:46.956Z,53.37
2018-12-19T15:29:50.473Z,50.77
2018-12-19T15:34:55.077Z,49.03
2018-12-19T15:39:58.627Z,50.20
2018-12-19T15:45:02.256Z,49.20
2018-12-19T15:50:07.664Z,44.37
2018-12-19T15:55:11.136Z,46.87
2018-12-19T16:00:16.480Z,43.43
2018-12-19T16:05:20.266Z,43.50
2018-12-19T16:10:30.541Z,45.40
2018-12-19T16:15:34.031Z,45.87
2018-12-19T16:20:37.539Z,38.00
2018-12-19T16:25:41.031Z,38.93
2018-12-19T16:30:44.449Z,39.30
2018-12-19T16:35:47.960Z,37.90
2018-12-19T16:40:51.872Z,39.57
2018-12-19T16:45:55.770Z,37.50
2018-12-19T16:50:59.557Z,37.70
2018-12-19T16:56:03.239Z,33.73
2018-12-19T17:01:06.904Z,31.53
2018-12-19T17:06:10.340Z,35.17
2018-12-19T17:11:14.041Z,33.90
2018-12-19T17:16:17.838Z,36.23
2018-12-19T17:21:21.437Z,30.53
2018-12-19T17:26:25.026Z,34.13
2018-12-19T17:31:28.505Z,34.83
2018-12-19T17:36:38.497Z,30.30
2018-12-19T17:41:42.062Z,31.00
2018-12-19T17:46:45.621Z,31.17
2018-12-19T17:51:49.300Z,33.43
2018-12-19T17:56:53.227Z,35.50
2018-12-19T18:01:56.893Z,32.43
2018-12-19T18:07:00.411Z,33.73
2018-12-19T18:12:04.010Z,33.67
2018-12-19T18:17:07.604Z,34.23
2018-12-19T18:22:11.121Z,33.00
2018-12-19T18:27:15.325Z,34.83
2018-12-19T18:32:18.951Z,31.20
2018-12-19T18:37:22.485Z,29.87
2018-12-19T18:42:26.063Z,33.60
2018-12-19T18:47:29.667Z,33.23
2018-12-19T18:52:33.329Z,32.30
2018-12-19T18:57:37.005Z,30.00
2018-12-19T19:02:40.675Z,34.70
2018-12-19T19:07:44.379Z,37.23
2018-12-19T19:12:49.285Z,32.80
2018-12-19T19:17:55.246Z,34.03
2018-12-19T19:23:01.918Z,32.53
2018-12-19T19:28:07.105Z,31.20
2018-12-19T19:33:15.363Z,34.47
2018-12-19T19:38:19.002Z,33.50
2018-12-19T19:43:26.523Z,31.97
2018-12-19T19:48:28.171Z,34.20
2018-12-19T19:53:31.855Z,31.93
2018-12-19T19:58:35.574Z,35.80
2018-12-19T20:03:38.978Z,32.83
2018-12-19T20:08:42.667Z,33.57
2018-12-19T20:13:46.134Z,32.60
2018-12-19T20:18:50.870Z,34.03
2018-12-19T20:23:54.452Z,32.47
2018-12-19T20:28:58.098Z,30.30
2018-12-19T20:34:01.611Z,31.03
2018-12-19T20:39:07.750Z,34.43
2018-12-19T20:44:11.418Z,31.90
2018-12-19T20:49:14.950Z,29.73
2018-12-19T20:54:18.423Z,28.60
2018-12-19T20:59:22.107Z,31.93
2018-12-19T21:04:25.912Z,32.87
2018-12-19T21:09:29.723Z,31.87
2018-12-19T21:14:33.402Z,31.50
2018-12-19T21:19:36.863Z,28.00
2018-12-19T21:24:41.508Z,30.07
2018-12-19T21:29:46.315Z,29.53
2018-12-19T21:34:51.485Z,30.80
2018-12-19T21:39:56.248Z,28.33
2018-12-19T21:44:59.815Z,28.60
2018-12-19T21:50:04.033Z,28.60
2018-12-19T21:55:07.576Z,29.93
2018-12-19T22:00:21.625Z,30.45
2018-12-19T22:05:25.255Z,27.23
2018-12-19T22:10:29.104Z,29.60
2018-12-19T22:15:32.676Z,25.93
2018-12-19T22:20:36.214Z,26.53
2018-12-19T22:25:40.157Z,26.10
2018-12-19T22:30:44.075Z,25.67
2018-12-19T22:35:47.611Z,29.43
2018-12-19T22:40:51.158Z,27.33
2018-12-19T22:45:54.808Z,31.50
2018-12-19T22:50:58.614Z,26.70
2018-12-19T22:56:02.286Z,28.77
2018-12-19T23:01:11.991Z,24.13
2018-12-19T23:06:15.962Z,24.53
2018-12-19T23:11:19.801Z,23.77
2018-12-19T23:16:23.329Z,25.40
2018-12-19T23:21:32.754Z,25.63
2018-12-19T23:26:42.498Z,23.73
2018-12-19T23:31:48.722Z,29.63
2018-12-19T23:36:52.305Z,26.07
2018-12-19T23:41:56.077Z,23.60
2018-12-19T23:47:00.138Z,27.17
2018-12-19T23:52:03.753Z,27.07
2018-12-19T23:57:07.338Z,26.20
